sensor_id;sensor_type;location;lat;lon;timestamp;temperature;humidity
20400;DHT22;10359;53.596;22.520;2022-09-02T00:01:57;6.90;99.90
20400;DHT22;10359;53.596;22.520;2022-09-02T00:04:30;6.90;99.90
20400;DHT22;10359;53.596;22.520;2022-09-02T00:06:59;6.90;99.90
20400;DHT22;10359;53.596;22.520;2022-09-02T00:09:30;6.80;99.90
20400;DHT22;10359;53.596;22.520;2022-09-02T00:12:00;6.80;99.90
20400;DHT22;10359;53.596;22.520;2022-09-02T00:14:37;6.80;99.90
20400;DHT22;10359;53.596;22.520;2022-09-02T00:17:06;6.80;99.90
20400;DHT22;10359;53.596;22.520;2022-09-02T00:19:44;6.80;99.90
20400;DHT22;10359;53.596;22.520;2022-09-02T00:22:22;6.80;99.90
20400;DHT22;10359;53.596;22.520;2022-09-02T00:24:51;6.70;99.90
20400;DHT22;10359;53.596;22.520;2022-09-02T00:27:21;6.70;99.90
20400;DHT22;10359;53.596;22.520;2022-09-02T00:29:50;6.70;99.90
20400;DHT22;10359;53.596;22.520;2022-09-02T00:32:19;6.70;99.90
20400;DHT22;10359;53.596;22.520;2022-09-02T00:34:50;6.70;99.90
20400;DHT22;10359;53.596;22.520;2022-09-02T00:37:19;6.70;99.90
20400;DHT22;10359;53.596;22.520;2022-09-02T00:39:51;6.60;99.90
20400;DHT22;10359;53.596;22.520;2022-09-02T00:42:21;6.60;99.90
20400;DHT22;10359;53.596;22.520;2022-09-02T00:44:52;6.50;99.90
20400;DHT22;10359;53.596;22.520;2022-09-02T00:47:21;6.50;99.90
20400;DHT22;10359;53.596;22.520;2022-09-02T00:49:53;6.50;99.90
20400;DHT22;10359;53.596;22.520;2022-09-02T00:52:28;6.50;99.90
20400;DHT22;10359;53.596;22.520;2022-09-02T00:55:01;6.40;99.90
20400;DHT22;10359;53.596;22.520;2022-09-02T00:57:35;6.40;99.90
20400;DHT22;10359;53.596;22.520;2022-09-02T01:00:08;6.40;99.90
20400;DHT22;10359;53.596;22.520;2022-09-02T01:02:40;6.40;99.90
20400;DHT22;10359;53.596;22.520;2022-09-02T01:05:13;6.40;99.90
20400;DHT22;10359;53.596;22.520;2022-09-02T01:07:44;6.40;99.90
20400;DHT22;10359;53.596;22.520;2022-09-02T01:10:22;6.30;99.90
20400;DHT22;10359;53.596;22.520;2022-09-02T01:13:00;6.30;99.90
20400;DHT22;10359;53.596;22.520;2022-09-02T01:15:46;6.40;99.90
20400;DHT22;10359;53.596;22.520;2022-09-02T01:18:18;6.30;99.90
20400;DHT22;10359;53.596;22.520;2022-09-02T01:20:49;6.30;99.90
20400;DHT22;10359;53.596;22.520;2022-09-02T01:23:20;6.20;99.90
20400;DHT22;10359;53.596;22.520;2022-09-02T01:25:51;6.20;99.90
20400;DHT22;10359;53.596;22.520;2022-09-02T01:28:20;6.20;99.90
20400;DHT22;10359;53.596;22.520;2022-09-02T01:30:52;6.10;99.90
20400;DHT22;10359;53.596;22.520;2022-09-02T01:33:22;6.10;99.90
20400;DHT22;10359;53.596;22.520;2022-09-02T01:35:52;6.10;99.90
20400;DHT22;10359;53.596;22.520;2022-09-02T01:38:24;6.10;99.90
20400;DHT22;10359;53.596;22.520;2022-09-02T01:40:55;6.10;99.90
20400;DHT22;10359;53.596;22.520;2022-09-02T01:43:27;6.00;99.90
20400;DHT22;10359;53.596;22.520;2022-09-02T01:45:57;6.00;99.90
20400;DHT22;10359;53.596;22.520;2022-09-02T01:48:27;5.90;99.90
20400;DHT22;10359;53.596;22.520;2022-09-02T01:51:01;5.90;99.90
20400;DHT22;10359;53.596;22.520;2022-09-02T01:53:33;5.90;99.90
20400;DHT22;10359;53.596;22.520;2022-09-02T01:56:03;5.90;99.90
20400;DHT22;10359;53.596;22.520;2022-09-02T01:58:32;5.90;99.90
20400;DHT22;10359;53.596;22.520;2022-09-02T02:01:02;5.90;99.90
20400;DHT22;10359;53.596;22.520;2022-09-02T02:03:31;5.80;99.90
20400;DHT22;10359;53.596;22.520;2022-09-02T02:06:07;5.80;99.90
20400;DHT22;10359;53.596;22.520;2022-09-02T02:08:39;5.80;99.90
20400;DHT22;10359;53.596;22.520;2022-09-02T02:13:38;5.70;99.90
20400;DHT22;10359;53.596;22.520;2022-09-02T02:16:41;5.70;99.90
20400;DHT22;10359;53.596;22.520;2022-09-02T02:19:10;5.70;99.90
20400;DHT22;10359;53.596;22.520;2022-09-02T02:21:40;5.70;99.90
20400;DHT22;10359;53.596;22.520;2022-09-02T02:24:10;5.60;99.90
20400;DHT22;10359;53.596;22.520;2022-09-02T02:26:40;5.60;99.90
20400;DHT22;10359;53.596;22.520;2022-09-02T02:29:09;5.50;99.90
20400;DHT22;10359;53.596;22.520;2022-09-02T02:31:38;5.50;99.90
20400;DHT22;10359;53.596;22.520;2022-09-02T02:34:08;5.50;99.90
20400;DHT22;10359;53.596;22.520;2022-09-02T02:36:38;5.40;99.90
20400;DHT22;10359;53.596;22.520;2022-09-02T02:39:08;5.40;99.90
20400;DHT22;10359;53.596;22.520;2022-09-02T02:41:40;5.40;99.90
20400;DHT22;10359;53.596;22.520;2022-09-02T02:44:11;5.30;99.90
20400;DHT22;10359;53.596;22.520;2022-09-02T02:46:40;5.30;99.90
20400;DHT22;10359;53.596;22.520;2022-09-02T02:49:09;5.30;99.90
20400;DHT22;10359;53.596;22.520;2022-09-02T02:51:38;5.30;99.90
20400;DHT22;10359;53.596;22.520;2022-09-02T02:54:07;5.30;99.90
20400;DHT22;10359;53.596;22.520;2022-09-02T02:56:39;5.30;99.90
20400;DHT22;10359;53.596;22.520;2022-09-02T02:59:08;5.20;99.90
20400;DHT22;10359;53.596;22.520;2022-09-02T03:01:38;5.20;99.90
20400;DHT22;10359;53.596;22.520;2022-09-02T03:04:07;5.20;99.90
20400;DHT22;10359;53.596;22.520;2022-09-02T03:06:36;5.20;99.90
20400;DHT22;10359;53.596;22.520;2022-09-02T03:09:06;5.20;99.90
20400;DHT22;10359;53.596;22.520;2022-09-02T03:11:54;5.20;99.90
20400;DHT22;10359;53.596;22.520;2022-09-02T03:14:24;5.20;99.90
20400;DHT22;10359;53.596;22.520;2022-09-02T03:16:53;5.10;99.90
20400;DHT22;10359;53.596;22.520;2022-09-02T03:19:22;5.10;99.90
20400;DHT22;10359;53.596;22.520;2022-09-02T03:21:51;5.10;99.90
20400;DHT22;10359;53.596;22.520;2022-09-02T03:24:22;5.10;99.90
20400;DHT22;10359;53.596;22.520;2022-09-02T03:26:51;5.00;99.90
20400;DHT22;10359;53.596;22.520;2022-09-02T03:29:22;5.00;99.90
20400;DHT22;10359;53.596;22.520;2022-09-02T03:31:51;5.00;99.90
20400;DHT22;10359;53.596;22.520;2022-09-02T03:34:22;5.00;99.90
20400;DHT22;10359;53.596;22.520;2022-09-02T03:36:51;5.00;99.90
20400;DHT22;10359;53.596;22.520;2022-09-02T03:39:20;5.00;99.90
20400;DHT22;10359;53.596;22.520;2022-09-02T03:41:49;4.90;99.90
20400;DHT22;10359;53.596;22.520;2022-09-02T03:44:19;4.90;99.90
20400;DHT22;10359;53.596;22.520;2022-09-02T03:46:50;5.00;99.90
20400;DHT22;10359;53.596;22.520;2022-09-02T03:49:19;5.00;99.90
20400;DHT22;10359;53.596;22.520;2022-09-02T03:51:48;5.00;99.90
20400;DHT22;10359;53.596;22.520;2022-09-02T03:54:17;5.00;99.90
20400;DHT22;10359;53.596;22.520;2022-09-02T03:56:46;5.00;99.90
20400;DHT22;10359;53.596;22.520;2022-09-02T03:59:15;5.00;99.90
20400;DHT22;10359;53.596;22.520;2022-09-02T04:01:44;5.00;99.90
20400;DHT22;10359;53.596;22.520;2022-09-02T04:04:15;5.00;99.90
20400;DHT22;10359;53.596;22.520;2022-09-02T04:06:48;5.00;99.90
20400;DHT22;10359;53.596;22.520;2022-09-02T04:09:17;5.00;99.90
20400;DHT22;10359;53.596;22.520;2022-09-02T04:11:47;5.10;99.90
20400;DHT22;10359;53.596;22.520;2022-09-02T04:14:16;5.10;99.90
20400;DHT22;10359;53.596;22.520;2022-09-02T04:16:45;5.10;99.90
20400;DHT22;10359;53.596;22.520;2022-09-02T04:19:16;5.20;99.90
20400;DHT22;10359;53.596;22.520;2022-09-02T04:21:45;5.20;99.90
20400;DHT22;10359;53.596;22.520;2022-09-02T04:24:14;5.20;99.90
20400;DHT22;10359;53.596;22.520;2022-09-02T04:26:43;5.20;99.90
20400;DHT22;10359;53.596;22.520;2022-09-02T04:29:12;5.20;99.90
20400;DHT22;10359;53.596;22.520;2022-09-02T04:31:42;5.30;99.90
20400;DHT22;10359;53.596;22.520;2022-09-02T04:34:11;5.40;99.90
20400;DHT22;10359;53.596;22.520;2022-09-02T04:36:42;5.40;99.90
20400;DHT22;10359;53.596;22.520;2022-09-02T04:39:11;5.50;99.90
20400;DHT22;10359;53.596;22.520;2022-09-02T04:41:40;5.50;99.90
20400;DHT22;10359;53.596;22.520;2022-09-02T04:44:08;5.60;99.90
20400;DHT22;10359;53.596;22.520;2022-09-02T04:46:37;5.70;99.90
20400;DHT22;10359;53.596;22.520;2022-09-02T04:49:06;5.80;99.90
20400;DHT22;10359;53.596;22.520;2022-09-02T04:51:36;5.80;99.90
20400;DHT22;10359;53.596;22.520;2022-09-02T04:54:06;5.90;99.90
20400;DHT22;10359;53.596;22.520;2022-09-02T04:56:35;6.00;99.90
20400;DHT22;10359;53.596;22.520;2022-09-02T04:59:05;6.10;99.90
20400;DHT22;10359;53.596;22.520;2022-09-02T05:01:35;6.20;99.90
20400;DHT22;10359;53.596;22.520;2022-09-02T05:04:05;6.30;99.90
20400;DHT22;10359;53.596;22.520;2022-09-02T05:06:36;6.40;99.90
20400;DHT22;10359;53.596;22.520;2022-09-02T05:09:12;6.50;99.90
20400;DHT22;10359;53.596;22.520;2022-09-02T05:11:41;6.60;99.90
20400;DHT22;10359;53.596;22.520;2022-09-02T05:14:10;6.70;99.90
20400;DHT22;10359;53.596;22.520;2022-09-02T05:16:40;6.80;99.90
20400;DHT22;10359;53.596;22.520;2022-09-02T05:19:09;6.90;99.90
20400;DHT22;10359;53.596;22.520;2022-09-02T05:21:41;7.00;99.90
20400;DHT22;10359;53.596;22.520;2022-09-02T05:24:12;7.10;99.90
20400;DHT22;10359;53.596;22.520;2022-09-02T05:26:41;7.20;99.90
20400;DHT22;10359;53.596;22.520;2022-09-02T05:29:11;7.30;99.90
20400;DHT22;10359;53.596;22.520;2022-09-02T05:31:41;7.50;99.90
20400;DHT22;10359;53.596;22.520;2022-09-02T05:34:10;7.60;99.90
20400;DHT22;10359;53.596;22.520;2022-09-02T05:36:38;7.60;99.90
20400;DHT22;10359;53.596;22.520;2022-09-02T05:39:08;7.80;99.90
20400;DHT22;10359;53.596;22.520;2022-09-02T05:41:38;7.90;99.90
20400;DHT22;10359;53.596;22.520;2022-09-02T05:44:07;8.00;99.90
20400;DHT22;10359;53.596;22.520;2022-09-02T05:46:36;8.20;99.90
20400;DHT22;10359;53.596;22.520;2022-09-02T05:49:06;8.40;99.90
20400;DHT22;10359;53.596;22.520;2022-09-02T05:51:40;8.50;99.90
20400;DHT22;10359;53.596;22.520;2022-09-02T05:54:13;8.60;99.90
20400;DHT22;10359;53.596;22.520;2022-09-02T05:56:45;8.80;99.90
20400;DHT22;10359;53.596;22.520;2022-09-02T05:59:14;8.90;99.90
20400;DHT22;10359;53.596;22.520;2022-09-02T06:01:44;9.10;99.90
20400;DHT22;10359;53.596;22.520;2022-09-02T06:04:14;9.20;99.90
20400;DHT22;10359;53.596;22.520;2022-09-02T06:06:43;9.40;99.90
20400;DHT22;10359;53.596;22.520;2022-09-02T06:09:14;9.50;99.90
20400;DHT22;10359;53.596;22.520;2022-09-02T06:11:46;9.70;99.90
20400;DHT22;10359;53.596;22.520;2022-09-02T06:14:17;9.80;99.90
20400;DHT22;10359;53.596;22.520;2022-09-02T06:16:47;10.00;99.90
20400;DHT22;10359;53.596;22.520;2022-09-02T06:19:17;10.10;99.90
20400;DHT22;10359;53.596;22.520;2022-09-02T06:21:47;10.30;99.90
20400;DHT22;10359;53.596;22.520;2022-09-02T06:24:16;10.50;99.90
20400;DHT22;10359;53.596;22.520;2022-09-02T06:26:47;10.60;99.90
20400;DHT22;10359;53.596;22.520;2022-09-02T06:29:23;10.70;99.90
20400;DHT22;10359;53.596;22.520;2022-09-02T06:31:53;10.80;99.90
20400;DHT22;10359;53.596;22.520;2022-09-02T06:34:22;10.90;99.90
20400;DHT22;10359;53.596;22.520;2022-09-02T06:36:53;11.10;99.90
20400;DHT22;10359;53.596;22.520;2022-09-02T06:39:24;11.30;99.90
20400;DHT22;10359;53.596;22.520;2022-09-02T06:41:56;11.40;99.90
20400;DHT22;10359;53.596;22.520;2022-09-02T06:44:25;11.60;99.90
20400;DHT22;10359;53.596;22.520;2022-09-02T06:46:59;11.70;99.90
20400;DHT22;10359;53.596;22.520;2022-09-02T06:49:29;11.80;99.90
20400;DHT22;10359;53.596;22.520;2022-09-02T06:51:58;11.90;99.90
20400;DHT22;10359;53.596;22.520;2022-09-02T06:54:27;12.10;99.90
20400;DHT22;10359;53.596;22.520;2022-09-02T06:56:57;12.30;99.90
20400;DHT22;10359;53.596;22.520;2022-09-02T06:59:26;12.40;99.90
20400;DHT22;10359;53.596;22.520;2022-09-02T07:01:55;12.40;99.90
20400;DHT22;10359;53.596;22.520;2022-09-02T07:04:25;12.60;99.90
20400;DHT22;10359;53.596;22.520;2022-09-02T07:07:11;12.70;99.90
20400;DHT22;10359;53.596;22.520;2022-09-02T07:09:40;12.90;99.90
20400;DHT22;10359;53.596;22.520;2022-09-02T07:12:10;13.00;99.90
20400;DHT22;10359;53.596;22.520;2022-09-02T07:14:42;13.10;99.90
20400;DHT22;10359;53.596;22.520;2022-09-02T07:17:13;13.20;99.90
20400;DHT22;10359;53.596;22.520;2022-09-02T07:19:44;13.30;99.90
20400;DHT22;10359;53.596;22.520;2022-09-02T07:22:13;13.40;99.90
20400;DHT22;10359;53.596;22.520;2022-09-02T07:24:45;13.50;99.90
20400;DHT22;10359;53.596;22.520;2022-09-02T07:27:15;13.60;99.90
20400;DHT22;10359;53.596;22.520;2022-09-02T07:29:46;13.70;99.90
20400;DHT22;10359;53.596;22.520;2022-09-02T07:32:16;13.60;99.90
20400;DHT22;10359;53.596;22.520;2022-09-02T07:34:45;13.80;99.90
20400;DHT22;10359;53.596;22.520;2022-09-02T07:37:15;14.00;99.90
20400;DHT22;10359;53.596;22.520;2022-09-02T07:39:43;14.10;99.90
20400;DHT22;10359;53.596;22.520;2022-09-02T07:42:14;14.30;99.90
20400;DHT22;10359;53.596;22.520;2022-09-02T07:44:44;14.40;99.90
20400;DHT22;10359;53.596;22.520;2022-09-02T07:47:13;14.40;99.90
20400;DHT22;10359;53.596;22.520;2022-09-02T07:49:42;14.50;99.90
20400;DHT22;10359;53.596;22.520;2022-09-02T07:52:31;14.50;99.90
20400;DHT22;10359;53.596;22.520;2022-09-02T07:55:00;14.50;99.90
20400;DHT22;10359;53.596;22.520;2022-09-02T07:57:31;14.50;99.90
20400;DHT22;10359;53.596;22.520;2022-09-02T08:00:00;14.70;99.90
20400;DHT22;10359;53.596;22.520;2022-09-02T08:02:29;14.70;99.90
20400;DHT22;10359;53.596;22.520;2022-09-02T08:04:58;14.70;99.90
20400;DHT22;10359;53.596;22.520;2022-09-02T08:07:27;14.80;99.90
20400;DHT22;10359;53.596;22.520;2022-09-02T08:09:56;15.00;99.90
20400;DHT22;10359;53.596;22.520;2022-09-02T08:12:27;15.00;99.90
20400;DHT22;10359;53.596;22.520;2022-09-02T08:14:58;15.10;99.90
20400;DHT22;10359;53.596;22.520;2022-09-02T08:17:27;15.10;99.90
20400;DHT22;10359;53.596;22.520;2022-09-02T08:19:56;15.30;99.90
20400;DHT22;10359;53.596;22.520;2022-09-02T08:22:25;15.40;99.90
20400;DHT22;10359;53.596;22.520;2022-09-02T08:24:54;15.50;99.90
20400;DHT22;10359;53.596;22.520;2022-09-02T08:27:23;15.50;99.90
20400;DHT22;10359;53.596;22.520;2022-09-02T08:29:53;15.60;99.90
20400;DHT22;10359;53.596;22.520;2022-09-02T08:32:24;15.70;99.90
20400;DHT22;10359;53.596;22.520;2022-09-02T08:34:53;15.70;99.90
20400;DHT22;10359;53.596;22.520;2022-09-02T08:37:23;15.80;99.90
20400;DHT22;10359;53.596;22.520;2022-09-02T08:39:52;15.80;99.90
20400;DHT22;10359;53.596;22.520;2022-09-02T08:42:23;16.00;99.90
20400;DHT22;10359;53.596;22.520;2022-09-02T08:44:57;16.10;99.90
20400;DHT22;10359;53.596;22.520;2022-09-02T08:47:30;16.10;99.90
20400;DHT22;10359;53.596;22.520;2022-09-02T08:50:04;16.20;99.90
20400;DHT22;10359;53.596;22.520;2022-09-02T08:52:38;16.30;99.90
20400;DHT22;10359;53.596;22.520;2022-09-02T08:55:11;16.40;99.90
20400;DHT22;10359;53.596;22.520;2022-09-02T08:57:43;16.40;99.90
20400;DHT22;10359;53.596;22.520;2022-09-02T09:00:13;16.10;99.90
20400;DHT22;10359;53.596;22.520;2022-09-02T09:02:55;16.50;99.90
20400;DHT22;10359;53.596;22.520;2022-09-02T09:05:34;16.60;99.90
20400;DHT22;10359;53.596;22.520;2022-09-02T09:08:14;16.80;99.90
20400;DHT22;10359;53.596;22.520;2022-09-02T09:10:53;16.50;99.90
20400;DHT22;10359;53.596;22.520;2022-09-02T09:16:46;17.00;99.90
20400;DHT22;10359;53.596;22.520;2022-09-02T09:19:30;17.00;99.90
20400;DHT22;10359;53.596;22.520;2022-09-02T09:22:01;17.10;99.90
20400;DHT22;10359;53.596;22.520;2022-09-02T09:24:37;16.90;99.90
20400;DHT22;10359;53.596;22.520;2022-09-02T09:27:15;17.10;99.90
20400;DHT22;10359;53.596;22.520;2022-09-02T09:29:49;17.30;99.90
20400;DHT22;10359;53.596;22.520;2022-09-02T09:32:24;17.40;99.90
20400;DHT22;10359;53.596;22.520;2022-09-02T09:34:57;17.50;99.90
20400;DHT22;10359;53.596;22.520;2022-09-02T09:37:31;17.50;99.90
20400;DHT22;10359;53.596;22.520;2022-09-02T09:40:24;17.60;99.90
20400;DHT22;10359;53.596;22.520;2022-09-02T09:42:57;17.70;99.90
20400;DHT22;10359;53.596;22.520;2022-09-02T09:45:33;17.70;99.90
20400;DHT22;10359;53.596;22.520;2022-09-02T09:48:22;17.90;99.90
20400;DHT22;10359;53.596;22.520;2022-09-02T09:51:12;17.80;99.90
20400;DHT22;10359;53.596;22.520;2022-09-02T09:53:42;17.80;99.90
20400;DHT22;10359;53.596;22.520;2022-09-02T09:56:28;17.70;99.90
20400;DHT22;10359;53.596;22.520;2022-09-02T09:59:06;17.90;99.90
20400;DHT22;10359;53.596;22.520;2022-09-02T10:01:36;18.00;99.90
20400;DHT22;10359;53.596;22.520;2022-09-02T10:04:08;18.10;99.90
20400;DHT22;10359;53.596;22.520;2022-09-02T10:06:59;18.30;99.90
20400;DHT22;10359;53.596;22.520;2022-09-02T10:09:30;17.80;99.90
20400;DHT22;10359;53.596;22.520;2022-09-02T10:12:02;18.10;99.90
20400;DHT22;10359;53.596;22.520;2022-09-02T10:14:34;18.40;99.90
20400;DHT22;10359;53.596;22.520;2022-09-02T10:17:19;18.50;99.90
20400;DHT22;10359;53.596;22.520;2022-09-02T10:19:53;18.60;99.90
20400;DHT22;10359;53.596;22.520;2022-09-02T10:22:43;18.70;99.90
20400;DHT22;10359;53.596;22.520;2022-09-02T10:25:31;18.80;99.90
20400;DHT22;10359;53.596;22.520;2022-09-02T10:28:07;18.80;99.90
20400;DHT22;10359;53.596;22.520;2022-09-02T10:30:45;18.90;99.90
20400;DHT22;10359;53.596;22.520;2022-09-02T10:33:29;19.10;99.90
20400;DHT22;10359;53.596;22.520;2022-09-02T10:36:05;19.20;99.90
20400;DHT22;10359;53.596;22.520;2022-09-02T10:38:45;19.30;99.90
20400;DHT22;10359;53.596;22.520;2022-09-02T10:41:33;19.10;99.90
20400;DHT22;10359;53.596;22.520;2022-09-02T10:44:26;19.20;99.90
20400;DHT22;10359;53.596;22.520;2022-09-02T10:47:01;19.30;99.90
20400;DHT22;10359;53.596;22.520;2022-09-02T10:49:53;19.40;99.90
20400;DHT22;10359;53.596;22.520;2022-09-02T10:52:48;19.70;99.90
20400;DHT22;10359;53.596;22.520;2022-09-02T10:55:27;20.00;99.90
20400;DHT22;10359;53.596;22.520;2022-09-02T10:58:07;20.20;99.90
20400;DHT22;10359;53.596;22.520;2022-09-02T11:00:42;20.00;99.90
20400;DHT22;10359;53.596;22.520;2022-09-02T11:03:17;20.20;99.90
20400;DHT22;10359;53.596;22.520;2022-09-02T11:05:51;20.50;99.90
20400;DHT22;10359;53.596;22.520;2022-09-02T11:08:26;20.30;99.90
20400;DHT22;10359;53.596;22.520;2022-09-02T11:11:06;20.50;99.90
20400;DHT22;10359;53.596;22.520;2022-09-02T11:13:39;20.50;99.90
20400;DHT22;10359;53.596;22.520;2022-09-02T11:16:15;20.60;99.90
20400;DHT22;10359;53.596;22.520;2022-09-02T11:18:53;20.20;99.90
20400;DHT22;10359;53.596;22.520;2022-09-02T11:21:44;19.70;99.90
20400;DHT22;10359;53.596;22.520;2022-09-02T11:24:20;20.00;99.90
20400;DHT22;10359;53.596;22.520;2022-09-02T11:26:55;20.00;99.90
20400;DHT22;10359;53.596;22.520;2022-09-02T11:29:34;19.90;99.90
20400;DHT22;10359;53.596;22.520;2022-09-02T11:32:12;20.10;99.90
20400;DHT22;10359;53.596;22.520;2022-09-02T11:34:46;19.70;99.90
20400;DHT22;10359;53.596;22.520;2022-09-02T11:37:26;19.50;99.90
20400;DHT22;10359;53.596;22.520;2022-09-02T11:40:00;19.40;99.90
20400;DHT22;10359;53.596;22.520;2022-09-02T11:43:11;19.70;99.90
20400;DHT22;10359;53.596;22.520;2022-09-02T11:46:14;19.90;99.90
20400;DHT22;10359;53.596;22.520;2022-09-02T11:49:08;20.10;99.90
20400;DHT22;10359;53.596;22.520;2022-09-02T11:52:00;20.30;99.90
20400;DHT22;10359;53.596;22.520;2022-09-02T11:54:35;20.30;99.90
20400;DHT22;10359;53.596;22.520;2022-09-02T11:57:05;20.50;99.90
20400;DHT22;10359;53.596;22.520;2022-09-02T12:02:49;20.70;99.90
20400;DHT22;10359;53.596;22.520;2022-09-02T12:05:43;20.80;99.90
20400;DHT22;10359;53.596;22.520;2022-09-02T12:11:39;21.20;99.90
20400;DHT22;10359;53.596;22.520;2022-09-02T12:14:11;21.30;99.90
20400;DHT22;10359;53.596;22.520;2022-09-02T12:17:01;21.30;99.90
20400;DHT22;10359;53.596;22.520;2022-09-02T12:19:43;21.20;99.90
20400;DHT22;10359;53.596;22.520;2022-09-02T12:22:25;21.30;99.90
20400;DHT22;10359;53.596;22.520;2022-09-02T12:24:56;21.50;99.90
20400;DHT22;10359;53.596;22.520;2022-09-02T12:27:27;21.70;99.90
20400;DHT22;10359;53.596;22.520;2022-09-02T12:29:58;22.20;99.90
20400;DHT22;10359;53.596;22.520;2022-09-02T12:33:04;22.50;99.90
20400;DHT22;10359;53.596;22.520;2022-09-02T12:35:54;22.50;99.90
20400;DHT22;10359;53.596;22.520;2022-09-02T12:38:29;22.20;99.90
20400;DHT22;10359;53.596;22.520;2022-09-02T12:41:19;22.20;99.90
20400;DHT22;10359;53.596;22.520;2022-09-02T12:44:24;22.30;99.90
20400;DHT22;10359;53.596;22.520;2022-09-02T12:47:00;22.30;99.90
20400;DHT22;10359;53.596;22.520;2022-09-02T12:49:45;22.00;99.90
20400;DHT22;10359;53.596;22.520;2022-09-02T12:52:42;21.50;99.90
20400;DHT22;10359;53.596;22.520;2022-09-02T12:55:24;21.10;99.90
20400;DHT22;10359;53.596;22.520;2022-09-02T12:58:03;20.90;99.90
20400;DHT22;10359;53.596;22.520;2022-09-02T13:00:38;20.70;99.90
20400;DHT22;10359;53.596;22.520;2022-09-02T13:03:38;20.50;99.90
20400;DHT22;10359;53.596;22.520;2022-09-02T13:06:19;20.40;99.90
20400;DHT22;10359;53.596;22.520;2022-09-02T13:09:22;20.20;99.90
20400;DHT22;10359;53.596;22.520;2022-09-02T13:12:39;20.30;99.90
20400;DHT22;10359;53.596;22.520;2022-09-02T13:15:21;20.20;99.90
20400;DHT22;10359;53.596;22.520;2022-09-02T13:18:20;20.20;99.90
20400;DHT22;10359;53.596;22.520;2022-09-02T13:24:37;20.10;99.90
20400;DHT22;10359;53.596;22.520;2022-09-02T13:30:18;21.00;99.90
20400;DHT22;10359;53.596;22.520;2022-09-02T13:32:56;21.20;99.90
20400;DHT22;10359;53.596;22.520;2022-09-02T13:35:27;21.30;99.90
20400;DHT22;10359;53.596;22.520;2022-09-02T13:37:58;21.30;99.90
20400;DHT22;10359;53.596;22.520;2022-09-02T13:40:31;20.90;99.90
20400;DHT22;10359;53.596;22.520;2022-09-02T13:43:03;20.90;99.90
20400;DHT22;10359;53.596;22.520;2022-09-02T13:45:34;20.70;99.90
20400;DHT22;10359;53.596;22.520;2022-09-02T13:48:07;20.70;99.90
20400;DHT22;10359;53.596;22.520;2022-09-02T13:50:43;20.30;99.90
20400;DHT22;10359;53.596;22.520;2022-09-02T13:53:22;20.00;99.90
20400;DHT22;10359;53.596;22.520;2022-09-02T13:56:14;19.80;99.90
20400;DHT22;10359;53.596;22.520;2022-09-02T13:58:45;19.60;99.90
20400;DHT22;10359;53.596;22.520;2022-09-02T14:01:21;19.70;99.90
20400;DHT22;10359;53.596;22.520;2022-09-02T14:03:52;19.90;99.90
20400;DHT22;10359;53.596;22.520;2022-09-02T14:06:25;20.20;99.90
20400;DHT22;10359;53.596;22.520;2022-09-02T14:08:57;20.50;99.90
20400;DHT22;10359;53.596;22.520;2022-09-02T14:11:28;20.70;99.90
20400;DHT22;10359;53.596;22.520;2022-09-02T14:14:00;20.80;99.90
20400;DHT22;10359;53.596;22.520;2022-09-02T14:16:31;20.90;99.90
20400;DHT22;10359;53.596;22.520;2022-09-02T14:19:06;20.90;99.90
20400;DHT22;10359;53.596;22.520;2022-09-02T14:21:36;21.10;99.90
20400;DHT22;10359;53.596;22.520;2022-09-02T14:24:11;21.30;99.90
20400;DHT22;10359;53.596;22.520;2022-09-02T14:26:44;21.20;99.90
20400;DHT22;10359;53.596;22.520;2022-09-02T14:29:15;21.20;99.90
20400;DHT22;10359;53.596;22.520;2022-09-02T14:31:46;21.20;99.90
20400;DHT22;10359;53.596;22.520;2022-09-02T14:34:31;21.30;99.90
20400;DHT22;10359;53.596;22.520;2022-09-02T14:37:20;21.40;99.90
20400;DHT22;10359;53.596;22.520;2022-09-02T14:40:05;21.30;99.90
20400;DHT22;10359;53.596;22.520;2022-09-02T14:42:50;21.40;99.90
20400;DHT22;10359;53.596;22.520;2022-09-02T14:45:26;21.40;99.90
20400;DHT22;10359;53.596;22.520;2022-09-02T14:47:57;21.50;99.90
20400;DHT22;10359;53.596;22.520;2022-09-02T14:50:29;21.70;99.90
20400;DHT22;10359;53.596;22.520;2022-09-02T14:53:03;21.70;99.90
20400;DHT22;10359;53.596;22.520;2022-09-02T14:55:48;21.70;99.90
20400;DHT22;10359;53.596;22.520;2022-09-02T14:58:21;21.70;99.90
20400;DHT22;10359;53.596;22.520;2022-09-02T15:00:54;21.60;99.90
20400;DHT22;10359;53.596;22.520;2022-09-02T15:03:24;21.30;99.90
20400;DHT22;10359;53.596;22.520;2022-09-02T15:05:53;21.30;99.90
20400;DHT22;10359;53.596;22.520;2022-09-02T15:08:23;21.10;99.90
20400;DHT22;10359;53.596;22.520;2022-09-02T15:10:52;21.10;99.90
20400;DHT22;10359;53.596;22.520;2022-09-02T15:13:27;21.10;99.90
20400;DHT22;10359;53.596;22.520;2022-09-02T15:15:59;21.20;99.90
20400;DHT22;10359;53.596;22.520;2022-09-02T15:18:29;21.00;99.90
20400;DHT22;10359;53.596;22.520;2022-09-02T15:20:58;21.00;99.90
20400;DHT22;10359;53.596;22.520;2022-09-02T15:23:27;21.00;99.90
20400;DHT22;10359;53.596;22.520;2022-09-02T15:26:00;20.90;99.90
20400;DHT22;10359;53.596;22.520;2022-09-02T15:28:31;20.80;99.90
20400;DHT22;10359;53.596;22.520;2022-09-02T15:31:01;20.80;99.90
20400;DHT22;10359;53.596;22.520;2022-09-02T15:33:30;20.70;99.90
20400;DHT22;10359;53.596;22.520;2022-09-02T15:36:04;20.60;99.90
20400;DHT22;10359;53.596;22.520;2022-09-02T15:38:34;20.40;99.90
20400;DHT22;10359;53.596;22.520;2022-09-02T15:41:12;20.30;99.90
20400;DHT22;10359;53.596;22.520;2022-09-02T15:43:43;20.20;99.90
20400;DHT22;10359;53.596;22.520;2022-09-02T15:46:17;19.90;99.90
20400;DHT22;10359;53.596;22.520;2022-09-02T15:48:47;19.90;99.90
20400;DHT22;10359;53.596;22.520;2022-09-02T15:51:18;19.80;99.90
20400;DHT22;10359;53.596;22.520;2022-09-02T15:53:53;19.70;99.90
20400;DHT22;10359;53.596;22.520;2022-09-02T15:56:23;19.50;99.90
20400;DHT22;10359;53.596;22.520;2022-09-02T15:58:58;19.20;99.90
20400;DHT22;10359;53.596;22.520;2022-09-02T16:01:29;19.10;99.90
20400;DHT22;10359;53.596;22.520;2022-09-02T16:04:00;19.00;99.90
20400;DHT22;10359;53.596;22.520;2022-09-02T16:06:29;18.90;99.90
20400;DHT22;10359;53.596;22.520;2022-09-02T16:08:59;18.80;99.90
20400;DHT22;10359;53.596;22.520;2022-09-02T16:11:28;18.60;99.90
20400;DHT22;10359;53.596;22.520;2022-09-02T16:13:59;18.50;99.90
20400;DHT22;10359;53.596;22.520;2022-09-02T16:16:28;18.40;99.90
20400;DHT22;10359;53.596;22.520;2022-09-02T16:18:58;18.30;99.90
20400;DHT22;10359;53.596;22.520;2022-09-02T16:21:28;18.20;99.90
20400;DHT22;10359;53.596;22.520;2022-09-02T16:23:57;18.10;99.90